sensor_id;sensor_type;location;lat;lon;timestamp;temperature;humidity
15556;DHT22;7879;48.660;9.116;2023-09-19T00:02:27;15.70;99.90
15556;DHT22;7879;48.660;9.116;2023-09-19T00:04:54;15.60;99.90
15556;DHT22;7879;48.660;9.116;2023-09-19T00:07:22;15.70;99.90
15556;DHT22;7879;48.660;9.116;2023-09-19T00:09:52;15.70;99.90
15556;DHT22;7879;48.660;9.116;2023-09-19T00:12:19;15.70;99.90
15556;DHT22;7879;48.660;9.116;2023-09-19T00:14:46;15.70;99.90
15556;DHT22;7879;48.660;9.116;2023-09-19T00:17:14;15.60;99.90
15556;DHT22;7879;48.660;9.116;2023-09-19T00:19:42;15.60;99.90
15556;DHT22;7879;48.660;9.116;2023-09-19T00:22:10;15.60;99.90
15556;DHT22;7879;48.660;9.116;2023-09-19T00:24:39;15.60;99.90
15556;DHT22;7879;48.660;9.116;2023-09-19T00:27:07;15.60;99.90
15556;DHT22;7879;48.660;9.116;2023-09-19T00:29:34;15.60;99.90
15556;DHT22;7879;48.660;9.116;2023-09-19T00:32:01;15.60;99.90
15556;DHT22;7879;48.660;9.116;2023-09-19T00:34:32;15.60;99.90
15556;DHT22;7879;48.660;9.116;2023-09-19T00:37:01;15.60;99.90
15556;DHT22;7879;48.660;9.116;2023-09-19T00:39:27;15.60;99.90
15556;DHT22;7879;48.660;9.116;2023-09-19T00:41:54;15.60;99.90
15556;DHT22;7879;48.660;9.116;2023-09-19T00:44:21;15.60;99.90
15556;DHT22;7879;48.660;9.116;2023-09-19T00:46:50;15.50;99.90
15556;DHT22;7879;48.660;9.116;2023-09-19T00:49:17;15.50;99.90
15556;DHT22;7879;48.660;9.116;2023-09-19T00:51:44;15.50;99.90
15556;DHT22;7879;48.660;9.116;2023-09-19T00:54:13;15.50;99.90
15556;DHT22;7879;48.660;9.116;2023-09-19T00:56:45;15.50;99.90
15556;DHT22;7879;48.660;9.116;2023-09-19T00:59:12;15.50;99.90
15556;DHT22;7879;48.660;9.116;2023-09-19T01:01:39;15.50;99.90
15556;DHT22;7879;48.660;9.116;2023-09-19T01:04:06;15.50;99.90
15556;DHT22;7879;48.660;9.116;2023-09-19T01:06:33;15.50;99.90
15556;DHT22;7879;48.660;9.116;2023-09-19T01:09:00;15.50;99.90
15556;DHT22;7879;48.660;9.116;2023-09-19T01:11:37;15.50;99.90
15556;DHT22;7879;48.660;9.116;2023-09-19T01:17:03;15.40;99.90
15556;DHT22;7879;48.660;9.116;2023-09-19T01:30:47;15.50;99.90
15556;DHT22;7879;48.660;9.116;2023-09-19T01:33:16;15.50;99.90
15556;DHT22;7879;48.660;9.116;2023-09-19T01:35:43;15.40;99.90
15556;DHT22;7879;48.660;9.116;2023-09-19T01:38:10;15.40;99.90
15556;DHT22;7879;48.660;9.116;2023-09-19T01:40:42;15.40;99.90
15556;DHT22;7879;48.660;9.116;2023-09-19T01:43:25;15.50;99.90
15556;DHT22;7879;48.660;9.116;2023-09-19T01:51:43;15.40;99.90
15556;DHT22;7879;48.660;9.116;2023-09-19T01:54:18;15.40;99.90
15556;DHT22;7879;48.660;9.116;2023-09-19T01:59:26;15.40;99.90
15556;DHT22;7879;48.660;9.116;2023-09-19T02:01:55;15.40;99.90
15556;DHT22;7879;48.660;9.116;2023-09-19T02:04:23;15.40;99.90
15556;DHT22;7879;48.660;9.116;2023-09-19T02:06:49;15.40;99.90
15556;DHT22;7879;48.660;9.116;2023-09-19T02:09:16;15.40;99.90
15556;DHT22;7879;48.660;9.116;2023-09-19T02:11:43;15.40;99.90
15556;DHT22;7879;48.660;9.116;2023-09-19T02:14:10;15.40;99.90
15556;DHT22;7879;48.660;9.116;2023-09-19T02:16:37;15.40;99.90
15556;DHT22;7879;48.660;9.116;2023-09-19T02:19:04;15.40;99.90
15556;DHT22;7879;48.660;9.116;2023-09-19T02:21:32;15.40;99.90
15556;DHT22;7879;48.660;9.116;2023-09-19T02:23:59;15.30;99.90
15556;DHT22;7879;48.660;9.116;2023-09-19T02:26:26;15.30;99.90
15556;DHT22;7879;48.660;9.116;2023-09-19T02:28:54;15.30;99.90
15556;DHT22;7879;48.660;9.116;2023-09-19T02:31:21;15.30;99.90
15556;DHT22;7879;48.660;9.116;2023-09-19T02:33:48;15.30;99.90
15556;DHT22;7879;48.660;9.116;2023-09-19T02:36:14;15.20;99.90
15556;DHT22;7879;48.660;9.116;2023-09-19T02:38:44;15.20;99.90
15556;DHT22;7879;48.660;9.116;2023-09-19T02:41:11;15.20;99.90
15556;DHT22;7879;48.660;9.116;2023-09-19T02:43:38;15.20;99.90
15556;DHT22;7879;48.660;9.116;2023-09-19T02:46:06;15.20;99.90
15556;DHT22;7879;48.660;9.116;2023-09-19T02:48:33;15.20;99.90
15556;DHT22;7879;48.660;9.116;2023-09-19T02:51:01;15.10;99.90
15556;DHT22;7879;48.660;9.116;2023-09-19T02:53:28;15.10;99.90
15556;DHT22;7879;48.660;9.116;2023-09-19T02:55:55;15.10;99.90
15556;DHT22;7879;48.660;9.116;2023-09-19T02:58:22;15.10;99.90
15556;DHT22;7879;48.660;9.116;2023-09-19T03:00:50;15.00;99.90
15556;DHT22;7879;48.660;9.116;2023-09-19T03:03:18;15.00;99.90
15556;DHT22;7879;48.660;9.116;2023-09-19T03:05:45;15.10;99.90
15556;DHT22;7879;48.660;9.116;2023-09-19T03:08:14;15.10;99.90
15556;DHT22;7879;48.660;9.116;2023-09-19T03:10:47;15.10;99.90
15556;DHT22;7879;48.660;9.116;2023-09-19T03:13:15;15.10;99.90
15556;DHT22;7879;48.660;9.116;2023-09-19T03:15:42;15.10;99.90
15556;DHT22;7879;48.660;9.116;2023-09-19T03:18:14;15.10;99.90
15556;DHT22;7879;48.660;9.116;2023-09-19T03:20:41;15.10;99.90
15556;DHT22;7879;48.660;9.116;2023-09-19T03:23:08;15.10;99.90
15556;DHT22;7879;48.660;9.116;2023-09-19T03:25:35;15.10;99.90
15556;DHT22;7879;48.660;9.116;2023-09-19T03:28:03;15.10;99.90
15556;DHT22;7879;48.660;9.116;2023-09-19T03:30:34;15.20;99.90
15556;DHT22;7879;48.660;9.116;2023-09-19T03:33:00;15.20;99.90
15556;DHT22;7879;48.660;9.116;2023-09-19T03:35:27;15.20;99.90
15556;DHT22;7879;48.660;9.116;2023-09-19T03:37:54;15.10;99.90
15556;DHT22;7879;48.660;9.116;2023-09-19T03:40:21;15.20;99.90
15556;DHT22;7879;48.660;9.116;2023-09-19T03:42:50;15.20;99.90
15556;DHT22;7879;48.660;9.116;2023-09-19T03:45:17;15.20;99.90
15556;DHT22;7879;48.660;9.116;2023-09-19T03:47:44;15.20;99.90
15556;DHT22;7879;48.660;9.116;2023-09-19T03:50:14;15.10;99.90
15556;DHT22;7879;48.660;9.116;2023-09-19T03:52:44;15.20;99.90
15556;DHT22;7879;48.660;9.116;2023-09-19T03:55:11;15.20;99.90
15556;DHT22;7879;48.660;9.116;2023-09-19T03:57:38;15.20;99.90
15556;DHT22;7879;48.660;9.116;2023-09-19T04:00:06;15.20;99.90
15556;DHT22;7879;48.660;9.116;2023-09-19T04:02:38;15.20;99.90
15556;DHT22;7879;48.660;9.116;2023-09-19T04:05:06;15.20;99.90
15556;DHT22;7879;48.660;9.116;2023-09-19T04:07:33;15.20;99.90
15556;DHT22;7879;48.660;9.116;2023-09-19T04:10:01;15.10;99.90
15556;DHT22;7879;48.660;9.116;2023-09-19T04:12:29;15.10;99.90
15556;DHT22;7879;48.660;9.116;2023-09-19T04:14:56;15.10;99.90
15556;DHT22;7879;48.660;9.116;2023-09-19T04:17:23;15.10;99.90
15556;DHT22;7879;48.660;9.116;2023-09-19T04:19:50;15.10;99.90
15556;DHT22;7879;48.660;9.116;2023-09-19T04:22:17;15.10;99.90
15556;DHT22;7879;48.660;9.116;2023-09-19T04:24:44;15.10;99.90
15556;DHT22;7879;48.660;9.116;2023-09-19T04:27:13;15.10;99.90
15556;DHT22;7879;48.660;9.116;2023-09-19T04:29:41;15.10;99.90
15556;DHT22;7879;48.660;9.116;2023-09-19T04:32:08;15.10;99.90
15556;DHT22;7879;48.660;9.116;2023-09-19T04:34:36;15.10;99.90
15556;DHT22;7879;48.660;9.116;2023-09-19T04:37:05;15.10;99.90
15556;DHT22;7879;48.660;9.116;2023-09-19T04:39:32;15.00;99.90
15556;DHT22;7879;48.660;9.116;2023-09-19T04:42:00;15.10;99.90
15556;DHT22;7879;48.660;9.116;2023-09-19T04:44:27;15.10;99.90
15556;DHT22;7879;48.660;9.116;2023-09-19T04:46:54;15.00;99.90
15556;DHT22;7879;48.660;9.116;2023-09-19T04:49:21;15.10;99.90
15556;DHT22;7879;48.660;9.116;2023-09-19T04:51:48;15.00;99.90
15556;DHT22;7879;48.660;9.116;2023-09-19T04:54:15;15.00;99.90
15556;DHT22;7879;48.660;9.116;2023-09-19T04:56:42;15.00;99.90
15556;DHT22;7879;48.660;9.116;2023-09-19T04:59:09;15.00;99.90
15556;DHT22;7879;48.660;9.116;2023-09-19T05:01:37;15.00;99.90
15556;DHT22;7879;48.660;9.116;2023-09-19T05:04:04;14.90;99.90
15556;DHT22;7879;48.660;9.116;2023-09-19T05:06:32;15.00;99.90
15556;DHT22;7879;48.660;9.116;2023-09-19T05:09:00;15.00;99.90
15556;DHT22;7879;48.660;9.116;2023-09-19T05:11:27;15.00;99.90
15556;DHT22;7879;48.660;9.116;2023-09-19T05:13:54;15.00;99.90
15556;DHT22;7879;48.660;9.116;2023-09-19T05:16:21;15.00;99.90
15556;DHT22;7879;48.660;9.116;2023-09-19T05:18:48;15.00;99.90
15556;DHT22;7879;48.660;9.116;2023-09-19T05:21:16;15.00;99.90
15556;DHT22;7879;48.660;9.116;2023-09-19T05:23:44;15.00;99.90
15556;DHT22;7879;48.660;9.116;2023-09-19T05:26:11;15.00;99.90
15556;DHT22;7879;48.660;9.116;2023-09-19T05:28:39;15.10;99.90
15556;DHT22;7879;48.660;9.116;2023-09-19T05:31:06;15.10;99.90
15556;DHT22;7879;48.660;9.116;2023-09-19T05:33:33;15.00;99.90
15556;DHT22;7879;48.660;9.116;2023-09-19T05:36:00;15.10;99.90
15556;DHT22;7879;48.660;9.116;2023-09-19T05:38:27;15.10;99.90
15556;DHT22;7879;48.660;9.116;2023-09-19T05:40:54;15.00;99.90
15556;DHT22;7879;48.660;9.116;2023-09-19T05:43:21;15.00;99.90
15556;DHT22;7879;48.660;9.116;2023-09-19T05:45:48;15.00;99.90
15556;DHT22;7879;48.660;9.116;2023-09-19T05:48:19;15.10;99.90
15556;DHT22;7879;48.660;9.116;2023-09-19T05:50:48;15.00;99.90
15556;DHT22;7879;48.660;9.116;2023-09-19T05:53:15;15.10;99.90
15556;DHT22;7879;48.660;9.116;2023-09-19T05:55:43;15.10;99.90
15556;DHT22;7879;48.660;9.116;2023-09-19T05:58:10;15.10;99.90
15556;DHT22;7879;48.660;9.116;2023-09-19T06:00:37;15.10;99.90
15556;DHT22;7879;48.660;9.116;2023-09-19T06:03:06;15.10;99.90
15556;DHT22;7879;48.660;9.116;2023-09-19T06:05:33;15.10;99.90
15556;DHT22;7879;48.660;9.116;2023-09-19T06:08:00;15.20;99.90
15556;DHT22;7879;48.660;9.116;2023-09-19T06:10:28;15.10;99.90
15556;DHT22;7879;48.660;9.116;2023-09-19T06:12:56;15.10;99.90
15556;DHT22;7879;48.660;9.116;2023-09-19T06:15:25;15.20;99.90
15556;DHT22;7879;48.660;9.116;2023-09-19T06:17:54;15.20;99.90
15556;DHT22;7879;48.660;9.116;2023-09-19T06:20:23;15.10;99.90
15556;DHT22;7879;48.660;9.116;2023-09-19T06:22:51;15.10;99.90
15556;DHT22;7879;48.660;9.116;2023-09-19T06:25:19;15.10;99.90
15556;DHT22;7879;48.660;9.116;2023-09-19T06:27:50;15.10;99.90
15556;DHT22;7879;48.660;9.116;2023-09-19T06:30:22;15.20;99.90
15556;DHT22;7879;48.660;9.116;2023-09-19T06:32:59;15.10;99.90
15556;DHT22;7879;48.660;9.116;2023-09-19T06:35:28;15.10;99.90
15556;DHT22;7879;48.660;9.116;2023-09-19T06:38:02;15.00;99.90
15556;DHT22;7879;48.660;9.116;2023-09-19T06:40:29;15.00;99.90
15556;DHT22;7879;48.660;9.116;2023-09-19T06:42:58;15.00;99.90
15556;DHT22;7879;48.660;9.116;2023-09-19T06:45:25;15.00;99.90
15556;DHT22;7879;48.660;9.116;2023-09-19T06:47:54;15.00;99.90
15556;DHT22;7879;48.660;9.116;2023-09-19T06:50:27;15.10;99.90
15556;DHT22;7879;48.660;9.116;2023-09-19T06:52:58;15.10;99.90
15556;DHT22;7879;48.660;9.116;2023-09-19T06:55:26;15.10;99.90
15556;DHT22;7879;48.660;9.116;2023-09-19T06:57:59;15.10;99.90
15556;DHT22;7879;48.660;9.116;2023-09-19T07:00:26;15.20;99.90
15556;DHT22;7879;48.660;9.116;2023-09-19T07:02:59;15.20;99.90
15556;DHT22;7879;48.660;9.116;2023-09-19T07:05:32;15.30;99.90
15556;DHT22;7879;48.660;9.116;2023-09-19T07:07:59;15.30;99.90
15556;DHT22;7879;48.660;9.116;2023-09-19T07:10:28;15.30;99.90
15556;DHT22;7879;48.660;9.116;2023-09-19T07:13:03;15.30;99.90
15556;DHT22;7879;48.660;9.116;2023-09-19T07:15:32;15.30;99.90
15556;DHT22;7879;48.660;9.116;2023-09-19T07:18:26;15.40;99.90
15556;DHT22;7879;48.660;9.116;2023-09-19T07:20:57;15.40;99.90
15556;DHT22;7879;48.660;9.116;2023-09-19T07:23:28;15.50;99.90
15556;DHT22;7879;48.660;9.116;2023-09-19T07:25:57;15.40;99.90
15556;DHT22;7879;48.660;9.116;2023-09-19T07:28:25;15.50;99.90
15556;DHT22;7879;48.660;9.116;2023-09-19T07:30:52;15.50;99.90
15556;DHT22;7879;48.660;9.116;2023-09-19T07:33:19;15.60;99.90
15556;DHT22;7879;48.660;9.116;2023-09-19T07:35:47;15.60;99.90
15556;DHT22;7879;48.660;9.116;2023-09-19T07:38:15;15.60;99.90
15556;DHT22;7879;48.660;9.116;2023-09-19T07:40:42;15.70;99.90
15556;DHT22;7879;48.660;9.116;2023-09-19T07:43:09;15.70;99.90
15556;DHT22;7879;48.660;9.116;2023-09-19T07:45:36;15.80;99.90
15556;DHT22;7879;48.660;9.116;2023-09-19T07:48:03;15.80;99.90
15556;DHT22;7879;48.660;9.116;2023-09-19T07:50:40;15.80;99.90
15556;DHT22;7879;48.660;9.116;2023-09-19T07:53:10;15.90;99.90
15556;DHT22;7879;48.660;9.116;2023-09-19T07:55:40;15.90;99.90
15556;DHT22;7879;48.660;9.116;2023-09-19T07:58:07;15.90;99.90
15556;DHT22;7879;48.660;9.116;2023-09-19T08:00:35;15.90;99.90
15556;DHT22;7879;48.660;9.116;2023-09-19T08:03:02;15.90;99.90
15556;DHT22;7879;48.660;9.116;2023-09-19T08:05:44;16.00;99.90
15556;DHT22;7879;48.660;9.116;2023-09-19T08:08:11;16.00;99.90
15556;DHT22;7879;48.660;9.116;2023-09-19T08:10:43;16.10;99.90
15556;DHT22;7879;48.660;9.116;2023-09-19T08:13:15;16.20;99.90
15556;DHT22;7879;48.660;9.116;2023-09-19T08:15:45;16.30;99.90
15556;DHT22;7879;48.660;9.116;2023-09-19T08:18:13;16.30;99.90
15556;DHT22;7879;48.660;9.116;2023-09-19T08:20:40;16.30;99.90
15556;DHT22;7879;48.660;9.116;2023-09-19T08:23:09;16.30;99.90
15556;DHT22;7879;48.660;9.116;2023-09-19T08:25:36;16.40;99.90
15556;DHT22;7879;48.660;9.116;2023-09-19T08:28:05;16.40;99.90
15556;DHT22;7879;48.660;9.116;2023-09-19T08:30:35;16.40;99.90
15556;DHT22;7879;48.660;9.116;2023-09-19T08:33:05;16.40;99.90
15556;DHT22;7879;48.660;9.116;2023-09-19T08:35:32;16.50;99.90
15556;DHT22;7879;48.660;9.116;2023-09-19T08:37:59;16.50;99.90
15556;DHT22;7879;48.660;9.116;2023-09-19T08:40:36;16.60;99.90
15556;DHT22;7879;48.660;9.116;2023-09-19T08:43:06;16.60;99.90
15556;DHT22;7879;48.660;9.116;2023-09-19T08:45:34;16.50;99.90
15556;DHT22;7879;48.660;9.116;2023-09-19T08:48:26;16.50;99.90
15556;DHT22;7879;48.660;9.116;2023-09-19T08:56:09;16.70;99.90
15556;DHT22;7879;48.660;9.116;2023-09-19T08:58:45;16.80;99.90
15556;DHT22;7879;48.660;9.116;2023-09-19T09:01:15;17.00;99.90
15556;DHT22;7879;48.660;9.116;2023-09-19T09:03:44;17.20;99.90
15556;DHT22;7879;48.660;9.116;2023-09-19T09:06:16;17.30;99.90
15556;DHT22;7879;48.660;9.116;2023-09-19T09:08:44;17.50;99.90
15556;DHT22;7879;48.660;9.116;2023-09-19T09:11:11;17.60;99.90
15556;DHT22;7879;48.660;9.116;2023-09-19T09:13:41;17.70;99.90
15556;DHT22;7879;48.660;9.116;2023-09-19T09:16:09;17.80;99.90
15556;DHT22;7879;48.660;9.116;2023-09-19T09:18:37;17.80;99.90
15556;DHT22;7879;48.660;9.116;2023-09-19T09:21:04;17.90;99.90
15556;DHT22;7879;48.660;9.116;2023-09-19T09:23:32;17.90;99.90
15556;DHT22;7879;48.660;9.116;2023-09-19T09:26:00;18.10;99.90
15556;DHT22;7879;48.660;9.116;2023-09-19T09:28:31;18.30;99.90
15556;DHT22;7879;48.660;9.116;2023-09-19T09:31:00;18.40;99.90
15556;DHT22;7879;48.660;9.116;2023-09-19T09:34:10;18.50;99.90
15556;DHT22;7879;48.660;9.116;2023-09-19T09:36:48;18.90;99.90
15556;DHT22;7879;48.660;9.116;2023-09-19T09:39:15;19.30;99.90
15556;DHT22;7879;48.660;9.116;2023-09-19T09:41:45;19.30;99.90
15556;DHT22;7879;48.660;9.116;2023-09-19T09:44:19;19.40;99.90
15556;DHT22;7879;48.660;9.116;2023-09-19T09:46:47;19.70;99.90
15556;DHT22;7879;48.660;9.116;2023-09-19T09:49:26;19.90;99.90
15556;DHT22;7879;48.660;9.116;2023-09-19T09:52:07;19.90;99.90
15556;DHT22;7879;48.660;9.116;2023-09-19T09:54:37;20.00;99.90
15556;DHT22;7879;48.660;9.116;2023-09-19T09:57:10;20.00;99.90
15556;DHT22;7879;48.660;9.116;2023-09-19T09:59:53;20.00;99.90
15556;DHT22;7879;48.660;9.116;2023-09-19T10:02:26;20.20;99.90
15556;DHT22;7879;48.660;9.116;2023-09-19T10:04:57;20.40;99.90
15556;DHT22;7879;48.660;9.116;2023-09-19T10:07:51;20.60;99.90
15556;DHT22;7879;48.660;9.116;2023-09-19T10:13:14;20.90;99.90
15556;DHT22;7879;48.660;9.116;2023-09-19T10:15:55;21.00;99.90
15556;DHT22;7879;48.660;9.116;2023-09-19T10:18:27;20.60;99.90
15556;DHT22;7879;48.660;9.116;2023-09-19T10:20:57;20.30;99.90
15556;DHT22;7879;48.660;9.116;2023-09-19T10:23:25;20.30;99.90
15556;DHT22;7879;48.660;9.116;2023-09-19T10:25:57;20.30;99.90
15556;DHT22;7879;48.660;9.116;2023-09-19T10:28:28;20.30;99.90
15556;DHT22;7879;48.660;9.116;2023-09-19T10:30:57;20.30;99.90
15556;DHT22;7879;48.660;9.116;2023-09-19T10:33:25;20.60;99.90
15556;DHT22;7879;48.660;9.116;2023-09-19T10:35:59;20.60;99.90
15556;DHT22;7879;48.660;9.116;2023-09-19T10:38:27;20.60;99.90
15556;DHT22;7879;48.660;9.116;2023-09-19T10:40:56;20.70;99.90
15556;DHT22;7879;48.660;9.116;2023-09-19T10:43:33;21.00;99.90
15556;DHT22;7879;48.660;9.116;2023-09-19T10:46:07;21.10;99.90
15556;DHT22;7879;48.660;9.116;2023-09-19T10:48:34;21.30;99.90
15556;DHT22;7879;48.660;9.116;2023-09-19T10:51:17;21.20;99.90
15556;DHT22;7879;48.660;9.116;2023-09-19T10:56:29;20.80;99.90
15556;DHT22;7879;48.660;9.116;2023-09-19T10:59:09;20.80;99.90
15556;DHT22;7879;48.660;9.116;2023-09-19T11:01:48;20.70;99.90
15556;DHT22;7879;48.660;9.116;2023-09-19T11:04:35;20.50;99.90
15556;DHT22;7879;48.660;9.116;2023-09-19T11:07:13;20.40;99.90
15556;DHT22;7879;48.660;9.116;2023-09-19T11:09:54;20.30;99.90
15556;DHT22;7879;48.660;9.116;2023-09-19T11:14:58;21.00;99.90
15556;DHT22;7879;48.660;9.116;2023-09-19T11:17:32;20.90;99.90
15556;DHT22;7879;48.660;9.116;2023-09-19T11:30:46;20.50;99.90
15556;DHT22;7879;48.660;9.116;2023-09-19T11:33:22;20.30;99.90
15556;DHT22;7879;48.660;9.116;2023-09-19T11:36:14;20.30;99.90
15556;DHT22;7879;48.660;9.116;2023-09-19T11:43:48;20.20;99.90
15556;DHT22;7879;48.660;9.116;2023-09-19T11:46:21;20.30;99.90
15556;DHT22;7879;48.660;9.116;2023-09-19T11:48:49;20.30;99.90
15556;DHT22;7879;48.660;9.116;2023-09-19T11:51:19;20.50;99.90
15556;DHT22;7879;48.660;9.116;2023-09-19T11:53:47;20.80;99.90
15556;DHT22;7879;48.660;9.116;2023-09-19T11:56:19;21.10;99.90
15556;DHT22;7879;48.660;9.116;2023-09-19T11:58:50;21.00;99.90
15556;DHT22;7879;48.660;9.116;2023-09-19T12:01:43;20.70;99.90
15556;DHT22;7879;48.660;9.116;2023-09-19T12:04:18;20.80;99.90
15556;DHT22;7879;48.660;9.116;2023-09-19T12:06:56;20.90;99.90
15556;DHT22;7879;48.660;9.116;2023-09-19T12:09:23;20.80;99.90
15556;DHT22;7879;48.660;9.116;2023-09-19T12:11:51;20.80;99.90
15556;DHT22;7879;48.660;9.116;2023-09-19T12:14:22;20.80;99.90
15556;DHT22;7879;48.660;9.116;2023-09-19T12:16:54;21.00;99.90
15556;DHT22;7879;48.660;9.116;2023-09-19T12:19:23;20.90;99.90
15556;DHT22;7879;48.660;9.116;2023-09-19T12:22:03;20.90;99.90
15556;DHT22;7879;48.660;9.116;2023-09-19T12:24:33;21.00;99.90
15556;DHT22;7879;48.660;9.116;2023-09-19T12:27:03;21.00;99.90
15556;DHT22;7879;48.660;9.116;2023-09-19T12:29:49;21.00;99.90
15556;DHT22;7879;48.660;9.116;2023-09-19T12:32:17;20.80;99.90
15556;DHT22;7879;48.660;9.116;2023-09-19T12:34:52;20.80;99.90
15556;DHT22;7879;48.660;9.116;2023-09-19T12:37:20;20.70;99.90
15556;DHT22;7879;48.660;9.116;2023-09-19T12:39:52;20.80;99.90
15556;DHT22;7879;48.660;9.116;2023-09-19T12:42:23;21.00;99.90
15556;DHT22;7879;48.660;9.116;2023-09-19T12:44:53;21.10;99.90
15556;DHT22;7879;48.660;9.116;2023-09-19T12:47:24;21.10;99.90
15556;DHT22;7879;48.660;9.116;2023-09-19T12:50:24;21.10;99.90
15556;DHT22;7879;48.660;9.116;2023-09-19T12:52:56;21.10;99.90
15556;DHT22;7879;48.660;9.116;2023-09-19T12:55:29;21.20;99.90
15556;DHT22;7879;48.660;9.116;2023-09-19T12:58:07;21.10;99.90
15556;DHT22;7879;48.660;9.116;2023-09-19T13:00:43;21.20;99.90
15556;DHT22;7879;48.660;9.116;2023-09-19T13:05:57;21.00;99.90
15556;DHT22;7879;48.660;9.116;2023-09-19T13:08:26;20.90;99.90
15556;DHT22;7879;48.660;9.116;2023-09-19T13:13:28;20.90;99.90
15556;DHT22;7879;48.660;9.116;2023-09-19T13:15:55;21.00;99.90
15556;DHT22;7879;48.660;9.116;2023-09-19T13:18:24;21.10;99.90
15556;DHT22;7879;48.660;9.116;2023-09-19T13:21:06;21.10;99.90
15556;DHT22;7879;48.660;9.116;2023-09-19T13:23:53;21.10;99.90
15556;DHT22;7879;48.660;9.116;2023-09-19T13:26:25;21.00;99.90
15556;DHT22;7879;48.660;9.116;2023-09-19T13:28:52;21.10;99.90
15556;DHT22;7879;48.660;9.116;2023-09-19T13:31:19;21.20;99.90
15556;DHT22;7879;48.660;9.116;2023-09-19T13:33:48;21.20;99.90
15556;DHT22;7879;48.660;9.116;2023-09-19T13:36:15;21.20;99.90
15556;DHT22;7879;48.660;9.116;2023-09-19T13:38:42;21.20;99.90
15556;DHT22;7879;48.660;9.116;2023-09-19T13:41:13;21.10;99.90
15556;DHT22;7879;48.660;9.116;2023-09-19T13:43:40;21.10;99.90
15556;DHT22;7879;48.660;9.116;2023-09-19T13:46:07;21.10;99.90
15556;DHT22;7879;48.660;9.116;2023-09-19T13:48:34;21.10;99.90
15556;DHT22;7879;48.660;9.116;2023-09-19T13:51:02;21.10;99.90
15556;DHT22;7879;48.660;9.116;2023-09-19T13:53:30;21.10;99.90
15556;DHT22;7879;48.660;9.116;2023-09-19T13:55:57;21.10;99.90
15556;DHT22;7879;48.660;9.116;2023-09-19T13:58:24;21.10;99.90
15556;DHT22;7879;48.660;9.116;2023-09-19T14:00:51;21.10;99.90
15556;DHT22;7879;48.660;9.116;2023-09-19T14:03:21;21.10;99.90
15556;DHT22;7879;48.660;9.116;2023-09-19T14:05:49;21.10;99.90
15556;DHT22;7879;48.660;9.116;2023-09-19T14:08:18;21.10;99.90
15556;DHT22;7879;48.660;9.116;2023-09-19T14:10:45;21.20;99.90
15556;DHT22;7879;48.660;9.116;2023-09-19T14:13:12;21.30;99.90
15556;DHT22;7879;48.660;9.116;2023-09-19T14:15:40;21.30;99.90
15556;DHT22;7879;48.660;9.116;2023-09-19T14:18:06;21.20;99.90
15556;DHT22;7879;48.660;9.116;2023-09-19T14:20:38;21.20;99.90
15556;DHT22;7879;48.660;9.116;2023-09-19T14:23:06;21.30;99.90
15556;DHT22;7879;48.660;9.116;2023-09-19T14:25:36;21.30;99.90
15556;DHT22;7879;48.660;9.116;2023-09-19T14:28:05;21.30;99.90
15556;DHT22;7879;48.660;9.116;2023-09-19T14:30:34;21.30;99.90
15556;DHT22;7879;48.660;9.116;2023-09-19T14:33:01;21.40;99.90
15556;DHT22;7879;48.660;9.116;2023-09-19T14:35:29;21.40;99.90
15556;DHT22;7879;48.660;9.116;2023-09-19T14:37:55;21.20;99.90
15556;DHT22;7879;48.660;9.116;2023-09-19T14:40:23;21.30;99.90
15556;DHT22;7879;48.660;9.116;2023-09-19T14:42:49;21.40;99.90
15556;DHT22;7879;48.660;9.116;2023-09-19T14:45:18;21.40;99.90
15556;DHT22;7879;48.660;9.116;2023-09-19T14:47:50;21.40;99.90
15556;DHT22;7879;48.660;9.116;2023-09-19T14:50:18;21.30;99.90
15556;DHT22;7879;48.660;9.116;2023-09-19T14:52:45;21.30;99.90
15556;DHT22;7879;48.660;9.116;2023-09-19T14:55:12;21.20;99.90
15556;DHT22;7879;48.660;9.116;2023-09-19T14:57:42;21.20;99.90
15556;DHT22;7879;48.660;9.116;2023-09-19T15:00:12;21.20;99.90
15556;DHT22;7879;48.660;9.116;2023-09-19T15:02:39;21.10;99.90
15556;DHT22;7879;48.660;9.116;2023-09-19T15:05:08;21.10;99.90
15556;DHT22;7879;48.660;9.116;2023-09-19T15:07:35;21.10;99.90
15556;DHT22;7879;48.660;9.116;2023-09-19T15:10:04;21.20;99.90
15556;DHT22;7879;48.660;9.116;2023-09-19T15:12:33;21.20;99.90
15556;DHT22;7879;48.660;9.116;2023-09-19T15:15:04;21.10;99.90
15556;DHT22;7879;48.660;9.116;2023-09-19T15:17:35;21.10;99.90
15556;DHT22;7879;48.660;9.116;2023-09-19T15:20:03;21.10;99.90
15556;DHT22;7879;48.660;9.116;2023-09-19T15:22:32;21.10;99.90
15556;DHT22;7879;48.660;9.116;2023-09-19T15:24:59;21.10;99.90
15556;DHT22;7879;48.660;9.116;2023-09-19T15:27:26;21.10;99.90
15556;DHT22;7879;48.660;9.116;2023-09-19T15:29:53;21.10;99.90
15556;DHT22;7879;48.660;9.116;2023-09-19T15:32:20;21.10;99.90
15556;DHT22;7879;48.660;9.116;2023-09-19T15:34:47;21.00;99.90
15556;DHT22;7879;48.660;9.116;2023-09-19T15:37:14;21.00;99.90
15556;DHT22;7879;48.660;9.116;2023-09-19T15:39:41;21.00;99.90
15556;DHT22;7879;48.660;9.116;2023-09-19T15:42:08;21.00;99.90
15556;DHT22;7879;48.660;9.116;2023-09-19T15:44:35;20.90;99.90
15556;DHT22;7879;48.660;9.116;2023-09-19T15:47:04;20.90;99.90
15556;DHT22;7879;48.660;9.116;2023-09-19T15:49:31;20.90;99.90
15556;DHT22;7879;48.660;9.116;2023-09-19T15:51:58;20.90;99.90
15556;DHT22;7879;48.660;9.116;2023-09-19T15:54:25;20.90;99.90
15556;DHT22;7879;48.660;9.116;2023-09-19T15:56:53;20.80;99.90
15556;DHT22;7879;48.660;9.116;2023-09-19T15:59:21;20.80;99.90
15556;DHT22;7879;48.660;9.116;2023-09-19T16:01:48;20.80;99.90
15556;DHT22;7879;48.660;9.116;2023-09-19T16:04:17;20.80;99.90
15556;DHT22;7879;48.660;9.116;2023-09-19T16:06:44;20.80;99.90
15556;DHT22;7879;48.660;9.116;2023-09-19T16:09:11;20.80;99.90
15556;DHT22;7879;48.660;9.116;2023-09-19T16:11:38;20.70;99.90
15556;DHT22;7879;48.660;9.116;2023-09-19T16:14:05;20.70;99.90
15556;DHT22;7879;48.660;9.116;2023-09-19T16:16:37;20.70;99.90
15556;DHT22;7879;48.660;9.116;2023-09-19T16:19:05;20.60;99.90
15556;DHT22;7879;48.660;9.116;2023-09-19T16:21:38;20.60;99.90
15556;DHT22;7879;48.660;9.116;2023-09-19T16:24:07;20.60;99.90
15556;DHT22;7879;48.660;9.116;2023-09-19T16:26:36;20.60;99.90
15556;DHT22;7879;48.660;9.116;2023-09-19T16:29:04;20.50;99.90
15556;DHT22;7879;48.660;9.116;2023-09-19T16:31:31;20.50;99.90
15556;DHT22;7879;48.660;9.116;2023-09-19T16:33:59;20.50;99.90
15556;DHT22;7879;48.660;9.116;2023-09-19T16:36:27;20.40;99.90
15556;DHT22;7879;48.660;9.116;2023-09-19T16:38:55;20.40;99.90
15556;DHT22;7879;48.660;9.116;2023-09-19T16:41:22;20.40;99.90
15556;DHT22;7879;48.660;9.116;2023-09-19T16:43:49;20.30;99.90
15556;DHT22;7879;48.660;9.116;2023-09-19T16:46:16;20.30;99.90
15556;DHT22;7879;48.660;9.116;2023-09-19T16:48:45;20.20;99.90
15556;DHT22;7879;48.660;9.116;2023-09-19T16:51:26;20.20;99.90
15556;DHT22;7879;48.660;9.116;2023-09-19T16:53:54;20.20;99.90
15556;DHT22;7879;48.660;9.116;2023-09-19T16:56:21;20.10;99.90
15556;DHT22;7879;48.660;9.116;2023-09-19T16:58:49;20.10;99.90